• Join FlightAware (Why Join?)
  • Login
  • US Flag 
05:32PM EDT


 

Airport Tracker/Info


-or-


 

Live Flight TrackerFlight Track Log ✈ N569SC ✈ 30-Apr-2013 ✈ KINT - KMSN

Flight Track Log - Related Links

Times and Time Zones

All times are in EDT time to prevent confusion due to time zone crossing. See the N569SC flight status page for this flight to view local times or setup timezone preferences in your user account.

Time Position Orientation Groundspeed Altitude Reporting Facility
EDT Latitude Longitude Course Direction KTS MPH feet Rate Location/Type
05:28PM 36.1744 -80.4378 321° Northwest 269 310 8,800  Level Atlanta Center
05:29PM 36.5265 -80.7265 321° Northwest  Level FlightAware Approximate
05:29PM 36.2386 -80.4967 323° Northwest 269 310 11,700  Level Atlanta Center
05:30PM 36.5892 -80.8091 318° Northwest  Level FlightAware Approximate
05:30PM 36.3178 -80.5628 326° Northwest 301 346 15,400  Level Atlanta Center
05:31PM 36.6596 -80.8895 317° Northwest  Level FlightAware Approximate
05:31PM 36.3906 -80.6267 325° Northwest 309 356 17,800  Level Atlanta Center
05:32PM 36.7312 -80.9682 315° West  Level FlightAware Approximate
05:32PM 36.4631 -80.6906 325° Northwest 321 369 20,100  Level Atlanta Center
05:33PM 36.8003 -81.0503 321° Northwest  Level FlightAware Approximate
05:33PM 36.5419 -80.7572 326° Northwest 331 381 22,500  Level Atlanta Center
05:34PM 36.6169 -80.8342 321° Northwest 337 388 24,900 2,220 Climbing Atlanta Center
05:35PM 36.6881 -80.9142 318° Northwest 345 397 27,000 1,920 Climbing Atlanta Center
05:36PM 36.7608 -80.9969 318° Northwest 355 409 28,800 1,680 Climbing Atlanta Center
05:37PM 36.8256 -81.0772 315° West 361 415 30,400 1,500 Climbing Atlanta Center
05:38PM 36.9025 -81.1653 318° Northwest 367 422 31,900 1,260 Climbing Atlanta Center
05:39PM 36.9903 -81.2661 317° Northwest 374 430 33,000 960 Climbing Atlanta Center
05:40PM 37.0800 -81.3644 319° Northwest 408 470 33,900 660 Climbing Atlanta Center
05:41PM 37.2186 -81.5222 318° Northwest 400 460 34,800 720 Climbing Indianapolis Center
05:43PM 37.2992 -81.6150 318° Northwest 393 452 36,000 840 Climbing Indianapolis Center
05:44PM 37.3872 -81.7011 322° Northwest 403 464 36,600 1,440 Climbing Indianapolis Center
05:45PM 37.4797 -81.7731 328° Northwest 392 451 39,000 1,620 Climbing Indianapolis Center
05:46PM 37.5525 -81.8608 316° Northwest 370 426 40,000 480 Climbing Indianapolis Center
05:47PM 37.6422 -81.9692 316° Northwest 380 437 40,000  Level Indianapolis Center
05:48PM 37.7233 -82.0644 317° Northwest 393 452 40,100 540 Climbing Indianapolis Center
05:49PM 37.8019 -82.1583 317° Northwest 392 451 41,200 1,140 Climbing Indianapolis Center
05:50PM 37.8775 -82.2500 316° Northwest 380 437 42,500 840 Climbing Indianapolis Center
05:51PM 37.9508 -82.3378 317° Northwest 365 420 43,000 240 Climbing Indianapolis Center
05:52PM 38.0386 -82.4425 317° Northwest 370 426 43,000 180 Level Indianapolis Center
05:53PM 38.1131 -82.5333 316° Northwest 370 426 43,400 420 Climbing Indianapolis Center
05:54PM 38.1894 -82.6264 316° Northwest 378 435 43,900 480 Climbing Indianapolis Center
05:55PM 38.2644 -82.7175 316° Northwest 375 432 44,400 420 Climbing Indianapolis Center
05:56PM 38.3392 -82.8078 317° Northwest 371 427 44,800 240 Climbing Indianapolis Center
05:57PM 38.4258 -82.9125 317° Northwest 367 422 45,000 60 Climbing Indianapolis Center
05:58PM 38.5011 -83.0056 316° Northwest 376 433 45,000  Level Indianapolis Center
05:59PM 38.5783 -83.1003 316° Northwest 383 441 45,000  Level Indianapolis Center
06:00PM 38.6614 -83.2031 316° Northwest 387 445 45,000  Level Indianapolis Center
06:01PM 38.7403 -83.2994 316° Northwest 387 445 45,000  Level Indianapolis Center
06:02PM 38.8189 -83.3972 316° Northwest 387 445 45,000  Level Indianapolis Center
06:03PM 38.8950 -83.4944 315° West 385 443 45,000  Level Indianapolis Center
06:04PM 38.9731 -83.5900 316° Northwest 385 443 45,000  Level Indianapolis Center
06:05PM 39.0492 -83.6842 316° Northwest 377 434 45,000  Level Indianapolis Center
06:06PM 39.1253 -83.7808 315° West 379 436 45,000  Level Indianapolis Center
06:07PM 39.2019 -83.8758 316° Northwest 378 435 45,000  Level Indianapolis Center
06:08PM 39.2897 -83.9881 315° West 376 433 45,000  Level Indianapolis Center
06:09PM 39.3647 -84.0817 316° Northwest 372 428 45,000  Level Indianapolis Center
06:10PM 39.4381 -84.1769 315° West 368 423 45,000  Level Indianapolis Center
06:11PM 39.5139 -84.2728 316° Northwest 374 430 45,000  Level Indianapolis Center
06:13PM 39.5878 -84.3675 315° West 371 427 45,000  Level Indianapolis Center
06:14PM 39.6628 -84.4619 316° Northwest 372 428 45,000  Level Indianapolis Center
06:15PM 39.7350 -84.5569 315° West 366 421 45,000  Level Indianapolis Center
06:16PM 39.8097 -84.6528 315° West 371 427 45,000  Level Indianapolis Center
06:17PM 39.8964 -84.7642 315° West 371 427 45,000  Level Indianapolis Center
06:18PM 39.9692 -84.8606 315° West 369 425 45,000  Level Indianapolis Center
06:19PM 40.0353 -84.9461 315° West 369 425 45,000  Level Indianapolis Center
06:20PM 40.1203 -85.0569 315° West 368 423 45,000  Level Indianapolis Center
06:21PM 40.1933 -85.1528 315° West 369 425 45,000  Level Indianapolis Center
06:22PM 40.2664 -85.2483 315° West 370 426 45,000  Level Indianapolis Center
06:23PM 40.3389 -85.3442 315° West 370 426 45,000  Level Indianapolis Center
06:23PM 40.3628 -85.3756 315° West 371 427 45,000  Level Chicago Center
06:24PM 40.4361 -85.4731 315° West 373 429 45,000  Level Chicago Center
06:25PM 40.5094 -85.5706 315° West 374 430 45,000  Level Chicago Center
06:26PM 40.5958 -85.6858 315° West 378 435 45,000  Level Chicago Center
06:27PM 40.6692 -85.7842 315° West 377 434 45,000  Level Chicago Center
06:28PM 40.7364 -85.8764 314° West 375 432 45,000  Level Chicago Center
06:29PM 40.8097 -85.9767 314° West 377 434 45,000  Level Chicago Center
06:30PM 40.8842 -86.0767 315° West 380 437 45,000  Level Chicago Center
06:31PM 40.9714 -86.1953 314° West 375 432 45,000  Level Chicago Center
06:32PM 41.0439 -86.2958 314° West 378 435 45,000  Level Chicago Center
06:34PM 41.1183 -86.3958 315° West 378 435 45,000 -120 Level Chicago Center
06:35PM 41.1900 -86.4969 313° West 376 433 44,800 -540 Descending Chicago Center
06:36PM 41.2650 -86.6011 314° West 387 445 43,900 -900 Descending Chicago Center
06:37PM 41.3464 -86.7114 315° West 414 476 43,000 -1,080 Descending Chicago Center
06:38PM 41.4453 -86.8492 314° West 422 486 41,700 -1,200 Descending Chicago Center
06:39PM 41.5244 -86.9603 314° West 420 483 40,600 -1,260 Descending Chicago Center
06:40PM 41.6050 -87.0722 314° West 420 483 39,100 -1,500 Descending Chicago Center
06:41PM 41.6836 -87.1842 313° West 420 483 37,600 -1,500 Descending Chicago Center
06:42PM 41.7636 -87.2950 314° West 417 480 36,100 -1,620 Descending Chicago Center
06:43PM 41.8553 -87.4264 313° West 410 472 34,300 -1,500 Descending Chicago Center
06:44PM 41.9292 -87.5328 313° West 400 460 33,000 -1,500 Descending Chicago Center
06:45PM 42.0044 -87.6389 314° West 398 458 31,200 -1,620 Descending Chicago Center
06:46PM 42.0769 -87.7461 312° West 393 452 29,700 -1,440 Descending Chicago Center
06:47PM 42.1503 -87.8494 314° West 387 445 28,200 -1,680 Descending Chicago Center
06:48PM 42.2381 -87.9750 313° West 388 447 26,300 -1,680 Descending Chicago Center
06:49PM 42.3089 -88.0822 312° West 386 444 24,800 -1,140 Descending Chicago Center
06:50PM 42.3822 -88.1931 312° West 378 435 24,000 -960 Descending Chicago Center
06:51PM 42.4492 -88.2903 313° West 356 410 22,900 -1,500 Descending Chicago Center
06:52PM 42.5153 -88.3892 312° West 353 406 21,000 -1,920 Descending Chicago Center
06:53PM 42.5794 -88.4881 311° West 350 403 19,000 -2,160 Descending Chicago Center
06:54PM 42.6531 -88.5983 312° West 337 388 16,600 -2,040 Descending Chicago Center
06:55PM 42.7114 -88.6858 312° West 316 364 14,800 -1,800 Descending Chicago Center
06:56PM 42.7653 -88.7667 312° West 292 336 13,000 -1,800 Descending Chicago Center
06:57PM 42.8167 -88.8453 312° West 279 321 11,200 -1,740 Descending Chicago Center
06:58PM 42.8692 -88.9222 313° West 276 318 9,500 -1,740 Descending Chicago Center
06:59PM 42.9272 -88.9892 320° Northwest 279 321 7,700 -1,680 Descending Chicago Center
07:00PM 43.0122 -89.0414 336° Northwest 286 329 6,100 -1,440 Descending Chicago Center
07:01PM 43.0656 -89.1161 314° West 283 326 4,800 -1,380 Descending Chicago Center
07:02PM 43.1119 -89.1950 309° West 273 314 3,300 -1,200 Descending Chicago Center
07:04PM 43.1550 -89.2714 308° West 262 302 2,400 -1,020 Descending Chicago Center
07:05PM 43.1653 -89.3178 287° West 179 206 1,300 -1,080 Descending Chicago Center
07:07PM 43.1333 -89.3333 312° West  Level FlightAware Approximate